Time;durP1;ratioP1;P1;durP2;ratioP2;P2;SDS_P1;SDS_P2;PMS_P1;PMS_P2;Temp;Humidity;BMP_temperature;BMP_pressure;BME280_temperature;BME280_humidity;BME280_pressure;Samples;Min_cycle;Max_cycle;Signal;HPM_P1;HPM_P2
2023/01/03 00:01:15;;;;;;;0.38;0.38;;;6.70;99.90;;;;;;5094842;28;20123;-68
2023/01/03 00:03:41;;;;;;;0.10;0.10;;;6.70;99.90;;;;;;5082365;28;20799;-68
2023/01/03 00:06:22;;;;;;;0.05;0.05;;;6.60;99.90;;;;;;5090428;28;20617;-68
2023/01/03 00:08:48;;;;;;;0.10;0.10;;;6.60;99.90;;;;;;5090094;28;20082;-68
2023/01/03 00:11:19;;;;;;;0.10;0.10;;;6.60;99.90;;;;;;5080131;28;20069;-68
2023/01/03 00:13:45;;;;;;;0.10;0.10;;;6.70;99.90;;;;;;5073461;28;20047;-68
2023/01/03 00:16:18;;;;;;;0.10;0.10;;;6.70;99.90;;;;;;5084867;28;20044;-68
2023/01/03 00:18:44;;;;;;;0.20;0.20;;;6.70;99.90;;;;;;5087301;28;20040;-68
2023/01/03 00:21:11;;;;;;;0.03;0.03;;;6.80;99.90;;;;;;5075515;28;20049;-68
2023/01/03 00:23:37;;;;;;;0.10;0.10;;;6.80;99.90;;;;;;5069648;28;20040;-68
2023/01/03 00:26:11;;;;;;;0.10;0.10;;;6.80;99.90;;;;;;5078489;28;20118;-68
2023/01/03 00:28:37;;;;;;;0.10;0.10;;;6.80;99.90;;;;;;5072447;28;20047;-68
2023/01/03 00:31:08;;;;;;;0.10;0.10;;;6.80;99.90;;;;;;5070364;28;20048;-68
2023/01/03 00:33:35;;;;;;;0.10;0.10;;;6.80;99.90;;;;;;5076314;28;20041;-68
2023/01/03 00:36:06;;;;;;;0.10;0.10;;;6.80;99.90;;;;;;5083078;28;20484;-68
2023/01/03 00:38:33;;;;;;;0.10;0.10;;;6.80;99.90;;;;;;5088433;28;20067;-68
2023/01/03 00:41:07;;;;;;;0.57;0.57;;;6.90;99.90;;;;;;5084774;28;20048;-68
2023/01/03 00:43:34;;;;;;;0.10;0.10;;;6.90;99.90;;;;;;5085040;28;20107;-68
2023/01/03 00:46:00;;;;;;;0.10;0.10;;;6.80;99.90;;;;;;5088083;28;20048;-68
2023/01/03 00:48:26;;;;;;;0.10;0.10;;;6.80;99.90;;;;;;5082596;28;20093;-68
2023/01/03 00:50:52;;;;;;;0.30;0.30;;;6.90;99.90;;;;;;5084938;28;20044;-68
2023/01/03 00:53:18;;;;;;;0.10;0.10;;;6.80;99.90;;;;;;5071218;28;20047;-68
2023/01/03 00:55:44;;;;;;;0.10;0.10;;;6.80;99.90;;;;;;5079850;28;20040;-68
2023/01/03 00:58:10;;;;;;;0.10;0.10;;;6.70;99.90;;;;;;5088527;28;20036;-68
2023/01/03 01:00:36;;;;;;;0.10;0.10;;;6.60;99.90;;;;;;5063775;28;20517;-68
2023/01/03 01:03:01;;;;;;;0.10;0.10;;;6.60;99.90;;;;;;5068323;28;20474;-68
2023/01/03 01:05:31;;;;;;;0.10;0.10;;;6.60;99.90;;;;;;5076798;28;20569;-68
2023/01/03 01:07:56;;;;;;;0.10;0.10;;;6.70;99.90;;;;;;5067578;28;20838;-68
2023/01/03 01:10:23;;;;;;;0.00;0.00;;;6.60;99.90;;;;;;5079531;28;20071;-68
2023/01/03 01:12:49;;;;;;;0.08;0.08;;;6.70;99.90;;;;;;5082890;28;20162;-69
2023/01/03 01:15:15;;;;;;;0.00;0.00;;;6.60;99.90;;;;;;5068591;28;20085;-67
2023/01/03 01:17:40;;;;;;;0.20;0.20;;;6.60;99.90;;;;;;5090709;28;20506;-67
2023/01/03 01:20:07;;;;;;;0.10;0.10;;;6.60;99.90;;;;;;5088565;28;20044;-68
2023/01/03 01:22:34;;;;;;;0.10;0.10;;;6.70;99.90;;;;;;5052686;28;20182;-69
2023/01/03 01:25:00;;;;;;;0.10;0.10;;;6.60;99.90;;;;;;5088497;28;20048;-68
2023/01/03 01:27:26;;;;;;;0.00;0.00;;;6.70;99.90;;;;;;5080685;28;20134;-68
2023/01/03 01:29:52;;;;;;;0.10;0.10;;;6.70;99.90;;;;;;5076882;28;20040;-68
2023/01/03 01:32:17;;;;;;;0.10;0.10;;;6.60;99.90;;;;;;5088292;28;20113;-68
2023/01/03 01:34:43;;;;;;;0.10;0.10;;;6.60;99.90;;;;;;5086086;28;20492;-69
2023/01/03 01:37:09;;;;;;;0.10;0.10;;;6.50;99.90;;;;;;5053598;28;20036;-68
2023/01/03 01:39:35;;;;;;;0.00;0.00;;;6.50;99.90;;;;;;5087586;28;20067;-68
2023/01/03 01:44:52;;;;;;;0.10;0.10;;;6.40;99.90;;;;;;5086536;28;20067;-68
2023/01/03 01:47:54;;;;;;;0.08;0.08;;;6.30;99.90;;;;;;5076017;28;20055;-68
2023/01/03 01:50:32;;;;;;;0.10;0.10;;;6.30;99.90;;;;;;5050079;28;20048;-68
2023/01/03 01:53:09;;;;;;;0.10;0.10;;;6.20;99.90;;;;;;5056180;28;20080;-68
2023/01/03 01:55:39;;;;;;;0.10;0.10;;;6.10;99.90;;;;;;5081053;28;20381;-68
2023/01/03 01:58:07;;;;;;;0.10;0.10;;;6.20;99.90;;;;;;5068893;28;20040;-68
2023/01/03 02:00:33;;;;;;;0.10;0.10;;;6.10;99.90;;;;;;5091828;28;20044;-68
2023/01/03 02:02:59;;;;;;;0.10;0.10;;;6.10;99.90;;;;;;5080751;28;20093;-68
2023/01/03 02:05:27;;;;;;;0.20;0.20;;;6.10;99.90;;;;;;5083671;28;20044;-68
2023/01/03 02:07:54;;;;;;;0.03;0.03;;;6.00;99.90;;;;;;5071353;28;20045;-68
2023/01/03 02:10:48;;;;;;;0.17;0.17;;;6.00;99.90;;;;;;5084052;28;20468;-68
2023/01/03 02:14:07;;;;;;;0.10;0.10;;;6.20;99.90;;;;;;5071111;28;20032;-68
2023/01/03 02:17:03;;;;;;;0.10;0.10;;;6.00;99.90;;;;;;4985622;28;20042;-69
2023/01/03 02:19:47;;;;;;;0.10;0.10;;;6.00;99.90;;;;;;5083343;28;20071;-68
2023/01/03 02:22:37;;;;;;;0.10;0.10;;;5.90;99.90;;;;;;5086665;28;20044;-68
2023/01/03 02:25:16;;;;;;;0.10;0.10;;;5.70;99.90;;;;;;5085301;28;20040;-68
2023/01/03 02:27:53;;;;;;;0.10;0.10;;;5.60;99.90;;;;;;5076490;28;20571;-68
2023/01/03 02:30:22;;;;;;;0.10;0.10;;;5.50;99.90;;;;;;5078944;28;20122;-68
2023/01/03 02:33:21;;;;;;;0.10;0.10;;;5.40;99.90;;;;;;5079904;28;20679;-68
2023/01/03 02:36:02;;;;;;;0.10;0.10;;;5.30;99.90;;;;;;5079896;28;20044;-67
2023/01/03 02:38:39;;;;;;;0.10;0.10;;;5.20;99.90;;;;;;5086657;28;20052;-68
2023/01/03 02:41:22;;;;;;;0.10;0.10;;;5.20;99.90;;;;;;5079275;28;20451;-68
2023/01/03 02:43:58;;;;;;;0.10;0.10;;;5.20;99.90;;;;;;5067865;28;20052;-68
2023/01/03 02:46:23;;;;;;;0.10;0.10;;;5.20;99.90;;;;;;5063325;28;20049;-69
2023/01/03 02:49:10;;;;;;;0.52;0.52;;;5.10;99.90;;;;;;5052420;28;20164;-68
2023/01/03 02:51:42;;;;;;;0.10;0.10;;;5.10;99.90;;;;;;5075676;28;20156;-68
2023/01/03 02:54:11;;;;;;;0.10;0.10;;;5.00;99.90;;;;;;5095899;28;20570;-68
2023/01/03 02:56:47;;;;;;;0.30;0.30;;;5.00;99.90;;;;;;5075426;28;20079;-68
2023/01/03 02:59:19;;;;;;;0.10;0.10;;;5.00;99.90;;;;;;5088566;28;20047;-68
2023/01/03 03:01:49;;;;;;;0.10;0.10;;;5.10;99.90;;;;;;5090519;28;20055;-67
2023/01/03 03:04:16;;;;;;;0.10;0.10;;;5.10;99.90;;;;;;5085926;28;20045;-68
2023/01/03 03:06:53;;;;;;;0.10;0.10;;;5.10;99.90;;;;;;5072712;28;20057;-69
2023/01/03 03:09:18;;;;;;;0.10;0.10;;;5.00;99.90;;;;;;5081274;28;20043;-68
2023/01/03 03:14:42;;;;;;;0.13;0.13;;;4.90;99.90;;;;;;5081234;28;20043;-68
2023/01/03 03:17:13;;;;;;;0.10;0.10;;;4.90;99.90;;;;;;5083666;28;20048;-68
2023/01/03 03:25:46;;;;;;;0.10;0.10;;;4.70;99.90;;;;;;5039225;28;20150;-68
2023/01/03 03:28:35;;;;;;;0.10;0.10;;;4.80;99.90;;;;;;5078278;28;20370;-68
2023/01/03 03:31:28;;;;;;;0.40;0.40;;;4.70;99.90;;;;;;5081731;28;20040;-68
2023/01/03 03:34:02;;;;;;;0.13;0.13;;;4.80;99.90;;;;;;5081868;28;20048;-68
2023/01/03 03:36:53;;;;;;;0.10;0.10;;;4.80;99.90;;;;;;5071536;28;20109;-68
2023/01/03 03:45:15;;;;;;;0.10;0.10;;;5.00;99.90;;;;;;5070733;28;20063;-68
2023/01/03 03:47:57;;;;;;;0.10;0.10;;;4.80;99.90;;;;;;5081258;28;20032;-68
2023/01/03 03:50:34;;;;;;;0.10;0.10;;;4.90;99.90;;;;;;5069249;28;20048;-68
2023/01/03 03:53:04;;;;;;;0.10;0.10;;;4.90;99.90;;;;;;5089477;28;20476;-68
2023/01/03 03:55:36;;;;;;;0.35;0.35;;;4.90;99.90;;;;;;5088751;28;20123;-68
2023/01/03 03:58:07;;;;;;;6.03;2.15;;;5.00;99.90;;;;;;5076650;28;20524;-68
2023/01/03 04:00:38;;;;;;;0.10;0.10;;;5.00;99.90;;;;;;5086034;28;20102;-67
2023/01/03 04:03:06;;;;;;;0.30;0.30;;;5.00;99.90;;;;;;5097948;28;20050;-68
2023/01/03 04:05:39;;;;;;;0.10;0.10;;;5.10;99.90;;;;;;5088847;28;20070;-68
2023/01/03 04:08:06;;;;;;;0.10;0.10;;;5.10;99.90;;;;;;5081212;28;20036;-67
2023/01/03 04:10:32;;;;;;;0.10;0.10;;;5.20;99.90;;;;;;5082671;28;20047;-68
2023/01/03 04:12:57;;;;;;;0.28;0.28;;;5.20;99.90;;;;;;5077558;28;20484;-68
2023/01/03 04:15:23;;;;;;;0.05;0.05;;;5.20;99.90;;;;;;5086389;28;20047;-68
2023/01/03 04:17:48;;;;;;;0.10;0.10;;;5.10;99.90;;;;;;5087921;28;20066;-68
2023/01/03 04:20:14;;;;;;;0.20;0.20;;;5.10;99.90;;;;;;5089407;28;20089;-68
2023/01/03 04:22:40;;;;;;;0.30;0.30;;;5.00;99.90;;;;;;5061793;28;20080;-68
2023/01/03 04:25:06;;;;;;;0.57;0.57;;;4.90;99.90;;;;;;5078135;28;20051;-68
2023/01/03 04:27:32;;;;;;;0.15;0.15;;;5.00;99.90;;;;;;5087553;28;20045;-68
2023/01/03 04:29:58;;;;;;;0.63;0.63;;;4.90;99.90;;;;;;5069497;28;20052;-68
2023/01/03 04:32:24;;;;;;;0.00;0.00;;;4.80;99.90;;;;;;5079962;28;20044;-68
2023/01/03 04:34:50;;;;;;;0.00;0.00;;;4.80;99.90;;;;;;5086736;28;20055;-67
2023/01/03 04:37:16;;;;;;;0.10;0.10;;;4.90;99.90;;;;;;5089223;28;20039;-67
2023/01/03 04:39:42;;;;;;;0.20;0.20;;;4.90;99.90;;;;;;5065401;28;20044;-67
2023/01/03 04:44:52;;;;;;;0.30;0.30;;;5.00;99.90;;;;;;5068977;28;20155;-67
2023/01/03 04:47:18;;;;;;;0.10;0.10;;;5.00;99.90;;;;;;5075198;28;20114;-67
2023/01/03 04:49:45;;;;;;;0.10;0.10;;;5.00;99.90;;;;;;5080879;28;20604;-67
2023/01/03 04:52:12;;;;;;;0.10;0.10;;;5.00;99.90;;;;;;5077008;28;20038;-67
2023/01/03 04:54:38;;;;;;;0.20;0.20;;;5.00;99.90;;;;;;5087571;28;20085;-66
2023/01/03 04:57:04;;;;;;;0.50;0.50;;;5.10;99.90;;;;;;5077556;28;20126;-67
2023/01/03 04:59:29;;;;;;;0.10;0.10;;;5.20;99.90;;;;;;5082680;28;20471;-67
2023/01/03 05:01:55;;;;;;;0.10;0.10;;;5.30;99.90;;;;;;5071108;28;20428;-67
2023/01/03 05:04:21;;;;;;;0.60;0.60;;;5.30;99.90;;;;;;5089508;28;20048;-67
2023/01/03 05:06:46;;;;;;;1.45;1.00;;;5.20;99.90;;;;;;5061146;28;20504;-67
2023/01/03 05:09:12;;;;;;;1.20;1.10;;;5.30;99.90;;;;;;5078144;28;20043;-67
2023/01/03 05:11:38;;;;;;;0.10;0.10;;;5.30;99.90;;;;;;5087668;28;20068;-67
2023/01/03 05:14:04;;;;;;;0.05;0.05;;;5.30;99.90;;;;;;5088788;28;20047;-68
2023/01/03 05:16:29;;;;;;;0.00;0.00;;;5.30;99.90;;;;;;5082516;28;20040;-68
2023/01/03 05:18:55;;;;;;;2.72;1.25;;;5.20;99.90;;;;;;5088543;28;20125;-68
2023/01/03 05:26:55;;;;;;;0.15;0.15;;;5.30;99.90;;;;;;5090862;28;20052;-67
2023/01/03 05:29:21;;;;;;;0.20;0.20;;;5.20;99.90;;;;;;5076843;28;20036;-68
2023/01/03 05:31:47;;;;;;;0.10;0.10;;;5.20;99.90;;;;;;5068770;28;20040;-68
2023/01/03 05:34:13;;;;;;;0.28;0.28;;;5.20;99.90;;;;;;5069144;28;20036;-67
2023/01/03 05:36:39;;;;;;;0.10;0.10;;;5.20;99.90;;;;;;5076693;28;20086;-68
2023/01/03 05:39:05;;;;;;;0.10;0.10;;;5.20;99.90;;;;;;5083771;28;20487;-67
2023/01/03 05:44:15;;;;;;;0.10;0.10;;;5.00;99.90;;;;;;5076553;28;20060;-68
2023/01/03 05:46:41;;;;;;;0.00;0.00;;;5.00;99.90;;;;;;5074831;28;20040;-68
2023/01/03 05:49:07;;;;;;;0.10;0.10;;;4.90;99.90;;;;;;5081021;28;20056;-67
2023/01/03 05:51:33;;;;;;;0.10;0.10;;;4.90;99.90;;;;;;5074950;28;20039;-68
2023/01/03 05:53:58;;;;;;;0.10;0.10;;;4.90;99.90;;;;;;5080030;28;20045;-67
2023/01/03 05:56:24;;;;;;;0.10;0.10;;;4.80;99.90;;;;;;5076491;28;20152;-68
2023/01/03 05:58:50;;;;;;;4.13;0.95;;;4.80;99.90;;;;;;5078483;28;20051;-68
2023/01/03 06:01:15;;;;;;;0.43;0.43;;;4.80;99.90;;;;;;5080040;28;20071;-67
2023/01/03 06:03:45;;;;;;;1.30;0.28;;;4.80;99.90;;;;;;5067303;28;20032;-67
2023/01/03 06:06:13;;;;;;;0.20;0.20;;;4.80;99.90;;;;;;5073677;28;20395;-67
2023/01/03 06:08:39;;;;;;;0.32;0.32;;;4.80;99.90;;;;;;5080016;28;20048;-68
2023/01/03 06:11:07;;;;;;;0.10;0.10;;;4.70;99.90;;;;;;5080748;28;20043;-68
2023/01/03 06:13:34;;;;;;;0.10;0.10;;;4.70;99.90;;;;;;5069383;28;20047;-67
2023/01/03 06:18:53;;;;;;;0.10;0.10;;;4.50;99.90;;;;;;5068348;28;20052;-68
2023/01/03 06:21:19;;;;;;;0.10;0.10;;;4.50;99.90;;;;;;5078015;28;20543;-67
2023/01/03 06:23:46;;;;;;;0.10;0.10;;;4.60;99.90;;;;;;5080032;28;20051;-67
2023/01/03 06:26:17;;;;;;;2.53;2.30;;;4.60;99.90;;;;;;5082244;28;20036;-67
2023/01/03 06:28:43;;;;;;;0.10;0.10;;;4.60;99.90;;;;;;5085231;28;20515;-66
2023/01/03 06:31:09;;;;;;;0.10;0.10;;;4.70;99.90;;;;;;5055551;28;20102;-67
2023/01/03 06:33:35;;;;;;;0.10;0.10;;;4.60;99.90;;;;;;5081473;28;20036;-67
2023/01/03 06:36:07;;;;;;;0.65;0.65;;;4.60;99.90;;;;;;5061107;28;20384;-67
2023/01/03 06:38:33;;;;;;;0.10;0.10;;;4.70;99.90;;;;;;5071785;28;20181;-67
2023/01/03 06:40:59;;;;;;;0.10;0.10;;;4.60;99.90;;;;;;5082001;28;20054;-67
2023/01/03 06:43:26;;;;;;;0.45;0.45;;;4.50;99.90;;;;;;5071371;28;20127;-67
2023/01/03 06:54:19;;;;;;;0.10;0.10;;;4.50;99.90;;;;;;5084011;28;20433;-66
2023/01/03 06:56:45;;;;;;;0.10;0.10;;;4.50;99.90;;;;;;5079612;28;20050;-66
2023/01/03 06:59:10;;;;;;;0.10;0.10;;;4.50;99.90;;;;;;5080030;28;20032;-67
2023/01/03 07:01:37;;;;;;;0.77;0.77;;;4.40;99.90;;;;;;5088629;28;20048;-66
2023/01/03 07:04:03;;;;;;;0.10;0.10;;;4.30;99.90;;;;;;5090990;28;20040;-67
2023/01/03 07:06:29;;;;;;;0.50;0.50;;;4.20;99.90;;;;;;5070297;28;20046;-68
2023/01/03 07:08:55;;;;;;;0.40;0.40;;;4.20;99.90;;;;;;5078155;28;20047;-66
2023/01/03 07:11:24;;;;;;;0.35;0.35;;;4.20;99.90;;;;;;5090152;28;20441;-67
2023/01/03 07:13:59;;;;;;;0.75;0.75;;;4.20;99.90;;;;;;5090159;28;20051;-67
2023/01/03 07:16:36;;;;;;;0.43;0.40;;;4.20;99.90;;;;;;5073820;28;20079;-67
2023/01/03 07:19:04;;;;;;;0.10;0.10;;;4.20;99.90;;;;;;5052151;28;20412;-68
2023/01/03 07:21:31;;;;;;;1.25;0.93;;;4.10;99.90;;;;;;5075410;28;20178;-69
2023/01/03 07:24:00;;;;;;;0.10;0.10;;;4.10;99.90;;;;;;5061717;28;20040;-69
2023/01/03 07:26:27;;;;;;;0.17;0.17;;;4.10;99.90;;;;;;5084552;28;20040;-69
2023/01/03 07:28:53;;;;;;;0.20;0.20;;;4.10;99.90;;;;;;5081900;28;20053;-69
2023/01/03 07:31:18;;;;;;;0.60;0.60;;;4.00;99.90;;;;;;5065083;28;20063;-69
2023/01/03 07:33:44;;;;;;;0.10;0.10;;;4.10;99.90;;;;;;5075753;28;20477;-69
2023/01/03 07:36:13;;;;;;;0.30;0.30;;;4.10;99.90;;;;;;5054517;28;20106;-69
2023/01/03 07:38:40;;;;;;;0.45;0.45;;;4.20;99.90;;;;;;5068758;28;20032;-69
2023/01/03 07:41:09;;;;;;;0.68;0.68;;;4.10;99.90;;;;;;5076995;28;20052;-69
2023/01/03 07:43:36;;;;;;;0.13;0.13;;;4.10;99.90;;;;;;5090740;28;20121;-69
2023/01/03 07:46:20;;;;;;;1.92;0.88;;;4.00;99.90;;;;;;5089947;28;20388;-69
2023/01/03 07:48:52;;;;;;;0.90;0.85;;;3.90;99.90;;;;;;5067483;28;20055;-69
2023/01/03 07:51:20;;;;;;;0.28;0.28;;;3.90;99.90;;;;;;5070552;28;20037;-69
2023/01/03 07:53:49;;;;;;;0.15;0.15;;;3.90;99.90;;;;;;5084288;28;20055;-69
2023/01/03 07:56:18;;;;;;;0.10;0.10;;;3.80;99.90;;;;;;5063282;28;20442;-67
2023/01/03 07:58:45;;;;;;;7.80;1.55;;;3.90;99.90;;;;;;5092020;28;20490;-68
2023/01/03 08:01:14;;;;;;;0.30;0.30;;;3.90;99.90;;;;;;5087043;28;20391;-68
2023/01/03 08:03:40;;;;;;;0.15;0.15;;;3.90;99.90;;;;;;5083745;28;20040;-68
2023/01/03 08:06:08;;;;;;;0.43;0.43;;;3.80;99.90;;;;;;5078144;28;20043;-67
2023/01/03 08:08:35;;;;;;;0.20;0.20;;;3.80;99.90;;;;;;5083914;28;20538;-67
2023/01/03 08:13:45;;;;;;;1.65;1.45;;;3.90;99.90;;;;;;5088610;28;20052;-69
2023/01/03 08:16:14;;;;;;;0.22;0.22;;;3.90;99.90;;;;;;5082967;28;20024;-69
2023/01/03 08:18:41;;;;;;;0.52;0.52;;;3.90;99.90;;;;;;5083300;28;20131;-69
2023/01/03 08:21:09;;;;;;;0.10;0.10;;;4.00;99.90;;;;;;5086193;28;20039;-69
2023/01/03 08:23:35;;;;;;;0.63;0.63;;;4.00;99.90;;;;;;5082821;28;20372;-70
2023/01/03 08:26:12;;;;;;;0.10;0.10;;;4.10;99.90;;;;;;5084628;28;20040;-68
2023/01/03 08:28:40;;;;;;;0.30;0.30;;;4.10;99.90;;;;;;5078262;28;20510;-69
2023/01/03 08:31:15;;;;;;;0.20;0.20;;;4.10;99.90;;;;;;5080521;28;20081;-68
2023/01/03 08:33:46;;;;;;;0.90;0.90;;;4.10;99.90;;;;;;5108148;28;20075;-68
2023/01/03 08:36:12;;;;;;;15.60;2.72;;;4.10;99.90;;;;;;5083594;28;20545;-68
2023/01/03 08:38:47;;;;;;;1.23;1.05;;;4.10;99.90;;;;;;5068698;28;20071;-67
2023/01/03 08:41:15;;;;;;;0.20;0.20;;;4.10;99.90;;;;;;5075236;28;20566;-68
2023/01/03 08:43:43;;;;;;;0.20;0.20;;;4.10;99.90;;;;;;5068417;28;20496;-68
2023/01/03 08:46:10;;;;;;;0.98;0.50;;;4.10;99.90;;;;;;5069905;28;20049;-67
2023/01/03 08:48:36;;;;;;;0.20;0.20;;;4.00;99.90;;;;;;5072142;28;20086;-70
2023/01/03 08:51:02;;;;;;;0.28;0.28;;;4.00;99.90;;;;;;5087210;28;20067;-67
2023/01/03 08:53:28;;;;;;;1.77;1.67;;;3.90;99.90;;;;;;5089050;28;20047;-68
2023/01/03 08:55:54;;;;;;;0.40;0.40;;;3.90;99.90;;;;;;5083727;28;20040;-67
2023/01/03 08:58:20;;;;;;;0.10;0.10;;;3.80;99.90;;;;;;5059474;28;20415;-68
2023/01/03 09:00:45;;;;;;;0.25;0.25;;;3.80;99.90;;;;;;5083535;28;20028;-68
2023/01/03 09:03:11;;;;;;;0.20;0.20;;;3.70;99.90;;;;;;5072490;28;20055;-67
2023/01/03 09:05:37;;;;;;;0.35;0.35;;;3.70;99.90;;;;;;5092353;28;20046;-67
2023/01/03 09:08:02;;;;;;;0.10;0.10;;;3.60;99.90;;;;;;5083753;28;20044;-67
2023/01/03 09:10:28;;;;;;;0.45;0.45;;;3.60;99.90;;;;;;5067970;28;20113;-67
2023/01/03 09:12:54;;;;;;;0.30;0.30;;;3.70;99.90;;;;;;5086984;28;20089;-68
2023/01/03 09:15:21;;;;;;;0.25;0.25;;;3.60;99.90;;;;;;5068109;28;20391;-67
2023/01/03 09:17:48;;;;;;;1.40;1.33;;;3.60;99.90;;;;;;5076680;28;20048;-67
2023/01/03 09:20:16;;;;;;;0.20;0.20;;;3.60;99.90;;;;;;5076994;28;20040;-68
2023/01/03 09:22:41;;;;;;;0.22;0.22;;;3.60;99.90;;;;;;5079666;28;20048;-68
2023/01/03 09:25:08;;;;;;;0.20;0.20;;;3.70;99.90;;;;;;5076941;28;20052;-68
2023/01/03 09:27:33;;;;;;;1.02;1.00;;;3.70;99.90;;;;;;5068949;28;20044;-68
2023/01/03 09:29:59;;;;;;;0.10;0.10;;;3.70;99.90;;;;;;5068362;28;20121;-67
2023/01/03 09:32:25;;;;;;;0.47;0.47;;;3.80;99.90;;;;;;5082795;28;20131;-68
2023/01/03 09:34:50;;;;;;;1.45;1.35;;;3.80;99.90;;;;;;5085755;28;20044;-67
2023/01/03 09:37:16;;;;;;;1.55;0.75;;;3.80;99.90;;;;;;5065980;28;20480;-68
2023/01/03 09:39:41;;;;;;;0.45;0.45;;;3.90;99.90;;;;;;5082394;28;20051;-67
2023/01/03 09:45:01;;;;;;;0.45;0.45;;;3.90;99.90;;;;;;5067037;28;20064;-67
2023/01/03 09:47:33;;;;;;;0.55;0.55;;;4.00;99.90;;;;;;5057002;28;20471;-67
2023/01/03 09:49:59;;;;;;;0.20;0.20;;;4.00;99.90;;;;;;5073826;28;20044;-67
2023/01/03 10:04:16;;;;;;;0.90;0.85;;;4.10;99.90;;;;;;5081321;28;20041;-67
2023/01/03 10:07:06;;;;;;;0.10;0.10;;;4.20;99.90;;;;;;5056012;28;20044;-66
2023/01/03 10:09:53;;;;;;;0.38;0.38;;;4.20;99.90;;;;;;5087514;28;20044;-66
2023/01/03 10:12:44;;;;;;;3.95;1.30;;;4.20;99.90;;;;;;5088699;28;20503;-68
2023/01/03 10:15:26;;;;;;;0.40;0.40;;;4.20;99.90;;;;;;5099396;28;20047;-69
2023/01/03 10:18:27;;;;;;;0.10;0.10;;;4.30;99.90;;;;;;5071580;28;20052;-68
2023/01/03 10:21:04;;;;;;;0.40;0.40;;;4.30;99.90;;;;;;5053140;28;20084;-68
2023/01/03 10:23:30;;;;;;;0.20;0.20;;;4.40;99.90;;;;;;5066631;28;20054;-68
2023/01/03 10:25:56;;;;;;;0.10;0.10;;;4.40;99.90;;;;;;5074201;28;20048;-69
2023/01/03 10:28:25;;;;;;;0.45;0.45;;;4.50;99.90;;;;;;5071742;28;20044;-67
2023/01/03 10:30:51;;;;;;;0.30;0.30;;;4.50;99.90;;;;;;5071282;28;20696;-68
2023/01/03 10:33:29;;;;;;;1.88;1.13;;;4.60;99.90;;;;;;5072033;28;20051;-67
2023/01/03 10:35:56;;;;;;;1.35;0.95;;;4.70;99.90;;;;;;5076445;28;20435;-69
2023/01/03 10:38:24;;;;;;;0.40;0.40;;;4.70;99.90;;;;;;5059054;28;20051;-70
2023/01/03 10:40:56;;;;;;;0.47;0.47;;;4.70;99.90;;;;;;5086387;28;20549;-70
2023/01/03 10:43:42;;;;;;;1.85;1.75;;;4.90;99.90;;;;;;5072625;28;20399;-69
2023/01/03 10:46:21;;;;;;;0.75;0.75;;;4.90;99.90;;;;;;5074828;28;20537;-71
2023/01/03 10:48:49;;;;;;;0.35;0.35;;;5.00;99.90;;;;;;5085522;28;20535;-71
2023/01/03 10:51:46;;;;;;;0.15;0.15;;;5.10;99.90;;;;;;5089046;28;20047;-71
2023/01/03 10:54:34;;;;;;;1.25;1.23;;;5.20;99.90;;;;;;5071326;28;20048;-70
2023/01/03 10:57:00;;;;;;;0.45;0.45;;;5.30;99.90;;;;;;5079160;28;20056;-71
2023/01/03 10:59:30;;;;;;;1.17;1.13;;;5.30;99.90;;;;;;5086958;28;20052;-70
2023/01/03 11:02:08;;;;;;;3.10;2.38;;;5.40;99.90;;;;;;5091023;28;20036;-70
2023/01/03 11:04:34;;;;;;;0.73;0.73;;;5.40;99.90;;;;;;5074262;28;20056;-70
2023/01/03 11:07:02;;;;;;;2.28;1.75;;;5.40;99.90;;;;;;5080643;28;20514;-70
2023/01/03 11:09:45;;;;;;;0.95;0.88;;;5.50;99.90;;;;;;5077327;28;20101;-69
2023/01/03 11:12:14;;;;;;;1.02;0.95;;;5.50;99.90;;;;;;5088381;28;20084;-69
2023/01/03 11:14:52;;;;;;;0.45;0.45;;;5.60;99.90;;;;;;5077942;28;20048;-69
2023/01/03 11:17:20;;;;;;;0.63;0.63;;;5.70;99.90;;;;;;5091711;28;20040;-71
2023/01/03 11:19:46;;;;;;;0.73;0.55;;;5.80;99.90;;;;;;5084077;28;20052;-72
2023/01/03 11:22:40;;;;;;;0.60;0.60;;;5.70;99.90;;;;;;5090570;28;20058;-71
2023/01/03 11:25:40;;;;;;;0.98;0.95;;;5.80;99.90;;;;;;5089584;28;20078;-70
2023/01/03 11:28:17;;;;;;;1.00;1.00;;;5.80;99.90;;;;;;5075914;28;20131;-70
2023/01/03 11:30:58;;;;;;;0.43;0.43;;;5.90;99.90;;;;;;5081177;28;20044;-70
2023/01/03 11:34:05;;;;;;;1.20;0.90;;;6.00;99.90;;;;;;5082474;28;20116;-70
2023/01/03 11:36:49;;;;;;;0.60;0.60;;;6.10;99.90;;;;;;5085668;28;20515;-70
2023/01/03 11:39:31;;;;;;;1.65;1.58;;;6.10;99.90;;;;;;5090121;28;20040;-70
2023/01/03 11:42:19;;;;;;;3.53;2.35;;;6.10;99.90;;;;;;5082545;28;20032;-69
2023/01/03 11:44:57;;;;;;;3.63;3.15;;;6.20;99.90;;;;;;5087089;28;20064;-70
2023/01/03 11:47:59;;;;;;;0.98;0.98;;;6.20;99.90;;;;;;5072502;28;20044;-69
2023/01/03 11:50:46;;;;;;;0.70;0.70;;;6.20;99.90;;;;;;5082363;28;20499;-70
2023/01/03 11:53:37;;;;;;;0.30;0.30;;;6.30;99.90;;;;;;5087047;28;20121;-70
2023/01/03 11:56:27;;;;;;;2.03;1.00;;;6.30;99.90;;;;;;5086363;28;20076;-70
2023/01/03 11:59:27;;;;;;;0.65;0.65;;;6.30;99.90;;;;;;5070468;28;20123;-70
2023/01/03 12:02:23;;;;;;;1.73;1.27;;;6.40;99.90;;;;;;5070753;28;20510;-70
2023/01/03 12:05:05;;;;;;;1.75;1.48;;;6.40;99.90;;;;;;5081113;28;20055;-70
2023/01/03 12:07:53;;;;;;;0.15;0.15;;;6.40;99.90;;;;;;5085711;28;20048;-70
2023/01/03 12:10:28;;;;;;;0.10;0.10;;;6.40;99.90;;;;;;5083669;28;20054;-70
2023/01/03 12:13:07;;;;;;;1.85;1.73;;;6.50;99.90;;;;;;5072990;28;20048;-70
2023/01/03 12:16:07;;;;;;;4.78;2.17;;;6.50;99.90;;;;;;5080676;28;20443;-70
2023/01/03 12:18:59;;;;;;;1.45;1.35;;;6.50;99.90;;;;;;5043507;28;20063;-70
2023/01/03 12:21:35;;;;;;;0.73;0.73;;;6.50;99.90;;;;;;5084131;28;20079;-70
2023/01/03 12:24:24;;;;;;;1.63;1.55;;;6.60;99.90;;;;;;5068903;28;20080;-70
2023/01/03 12:26:59;;;;;;;0.95;0.73;;;6.60;99.90;;;;;;5051502;28;20052;-70
2023/01/03 12:29:42;;;;;;;0.60;0.60;;;6.60;99.90;;;;;;5074895;28;20496;-69
2023/01/03 12:32:17;;;;;;;0.85;0.85;;;6.60;99.90;;;;;;5086725;28;20077;-70
2023/01/03 12:35:06;;;;;;;1.27;1.05;;;6.60;99.90;;;;;;5085636;28;20044;-70
2023/01/03 12:37:38;;;;;;;0.55;0.55;;;6.60;99.90;;;;;;5064557;28;20044;-70
2023/01/03 12:41:00;;;;;;;2.28;1.00;;;6.70;99.90;;;;;;5085808;28;20040;-70
2023/01/03 12:43:34;;;;;;;2.28;1.02;;;6.70;99.90;;;;;;4959773;28;20054;-70
2023/01/03 12:46:17;;;;;;;1.08;1.08;;;6.70;99.90;;;;;;5067654;28;20055;-69
2023/01/03 12:48:48;;;;;;;0.75;0.73;;;7.00;99.90;;;;;;5077998;28;20040;-69
2023/01/03 12:51:23;;;;;;;0.10;0.10;;;6.90;99.90;;;;;;5086231;28;20130;-69
2023/01/03 12:54:46;;;;;;;2.83;1.17;;;6.90;99.90;;;;;;5087248;28;20048;-69
2023/01/03 12:57:36;;;;;;;0.68;0.68;;;6.90;99.90;;;;;;4952670;28;20458;-69
2023/01/03 13:00:38;;;;;;;0.57;0.57;;;6.90;99.90;;;;;;4965080;28;20046;-70
2023/01/03 13:03:37;;;;;;;2.15;2.03;;;6.90;99.90;;;;;;5055591;28;20102;-70
2023/01/03 13:06:14;;;;;;;0.70;0.70;;;6.90;99.90;;;;;;5075022;28;20067;-70
2023/01/03 13:08:47;;;;;;;1.17;1.00;;;6.90;99.90;;;;;;5070007;28;20431;-70
2023/01/03 13:11:39;;;;;;;1.33;1.25;;;7.00;99.90;;;;;;5077497;28;20046;-70
2023/01/03 13:14:18;;;;;;;0.70;0.70;;;7.00;99.90;;;;;;5086557;28;20118;-69
2023/01/03 13:16:45;;;;;;;0.50;0.50;;;7.00;99.90;;;;;;5071166;28;20048;-70
2023/01/03 13:19:22;;;;;;;1.35;1.00;;;7.10;99.90;;;;;;5067104;28;20048;-70
2023/01/03 13:21:54;;;;;;;0.30;0.30;;;7.10;99.90;;;;;;5083189;28;20418;-70
2023/01/03 13:24:43;;;;;;;1.75;1.65;;;7.10;99.90;;;;;;5089300;28;20562;-70
2023/01/03 13:27:17;;;;;;;1.35;1.25;;;7.10;99.90;;;;;;5074720;28;20049;-69
2023/01/03 13:29:49;;;;;;;1.13;1.08;;;7.20;99.90;;;;;;5073056;28;20040;-68
2023/01/03 13:32:21;;;;;;;1.23;1.13;;;7.20;99.90;;;;;;5076962;28;20560;-69
2023/01/03 13:34:53;;;;;;;0.32;0.32;;;7.20;99.90;;;;;;5082367;28;20047;-69
2023/01/03 13:37:41;;;;;;;0.38;0.35;;;7.20;99.90;;;;;;5068866;28;20119;-69
2023/01/03 13:40:31;;;;;;;1.65;1.55;;;7.30;99.90;;;;;;5077773;28;20725;-68
2023/01/03 13:43:13;;;;;;;0.77;0.77;;;7.30;99.90;;;;;;5049822;28;20047;-68
2023/01/03 13:45:43;;;;;;;0.95;0.77;;;7.30;99.90;;;;;;5068184;28;21815;-70
2023/01/03 13:48:21;;;;;;;0.20;0.20;;;7.30;99.90;;;;;;5074994;28;20071;-70
2023/01/03 13:51:23;;;;;;;3.58;1.13;;;7.30;99.90;;;;;;5093123;28;20554;-69
2023/01/03 13:53:59;;;;;;;0.50;0.50;;;7.30;99.90;;;;;;5081129;28;20044;-69
2023/01/03 13:56:30;;;;;;;0.63;0.63;;;7.30;99.90;;;;;;5082953;28;20056;-69
2023/01/03 13:59:18;;;;;;;0.60;0.60;;;7.30;99.90;;;;;;5067760;28;20044;-70
2023/01/03 14:01:53;;;;;;;0.50;0.50;;;7.30;99.90;;;;;;5074592;28;20048;-69
2023/01/03 14:04:51;;;;;;;0.25;0.25;;;7.40;99.90;;;;;;5082918;28;20098;-69
2023/01/03 14:07:51;;;;;;;0.40;0.40;;;7.40;99.90;;;;;;5085308;28;20047;-67
2023/01/03 14:10:35;;;;;;;0.73;0.73;;;7.40;99.90;;;;;;5068421;28;20438;-69
2023/01/03 14:13:18;;;;;;;0.40;0.40;;;7.40;99.90;;;;;;5067227;28;20483;-69
2023/01/03 14:15:45;;;;;;;0.25;0.25;;;7.50;99.90;;;;;;5081343;28;20052;-67
2023/01/03 14:18:21;;;;;;;1.23;1.20;;;7.50;99.90;;;;;;5088153;28;20136;-71
2023/01/03 14:20:50;;;;;;;3.40;0.52;;;7.50;99.90;;;;;;5087228;28;20062;-69
2023/01/03 14:23:19;;;;;;;0.22;0.22;;;7.60;99.90;;;;;;5067947;28;20040;-68
2023/01/03 14:25:45;;;;;;;1.08;1.08;;;7.60;99.90;;;;;;5068002;28;20048;-69